Guadeloupe : La 69e édition du Tour International 2019

Alain Paulmin Jeudi 08 août 2019

6ième étape : Jeudi 08 : Sainte-Anne - Saint-Claude 126 km, départ à 10h, GUILLONNET Adrien INTERPRO CYCLING ACADEMY le maillot jaune en personne a dompté le peloton et conforte sa 1ere place au général.

PORT DES MAILLOTS POUR LA PROCHAINE ETAPE
A l'issue de l'étape n° 5 Résultats officiels

51 Jaune Général individuel au temps GUILLONNET Adrien INTERPRO CYCLING ACADEMY REGION GUADELOUPE 
35 Bleu Général individuel aux points ÁLVAREZ AYALA  Miguel Lu INTEJA IMCA RIDEA DCT CAP EXCELLENCE 
264 Pois rouges Général Meilleur Grimpeur SALINAS DUQUE Jhonathan UNI SPORT LAMENTINOIS CORSAIR 
175 Blanc Général Meilleur Jeune PRONSKIY  Vadim VINO ASTANA MOTORS CONSEIL DEPARTEMENTAL DE LA Guadeloupe
116 Fushia Général Combiné URRUTY Maxime TEAM PRO IMMO NICOLAS ROGUADELOUPE POLE CARAIBES 
36 Orange Général Points Chauds GUZMAN ROSARIO William INTEJA IMCA RIDEA DCT EDF AGIR PLUS
202 Vert Général Combativité BAROLIN Kérane UNION VELOCIPEDIQUE DU N AIR ANTILLES

CLASSEMENT DE L'ETAPE
Résultats officiels Etape n°6 - SAINTE-ANNE - SAINT-CLAUDEJ eudi 08 Août 2019
Nombre de km : 126,000
37,240 km/heureM oyenne du vainqueur :

51 10012343838 GUILLONNET Adrien INTERPRO CYCLING ACADEMY 03:23:01:001
91 10009352804 DOMBROWSKI Frederik TEAM EMBRACE THE WORLD 03:23:50:00 00:00:49:002
81 10002296052 NAVA CARVAJAL John Alberto GWADA BIKERS 118 03:24:00:00 00:00:59:003
175 10015084591 X PRONSKIY  Vadim VINO ASTANA MOTORS 03:24:13:00 00:01:12:004
1 10006031461 SANCHEZ ANZOLA Edwin TEAM CARENE CYCLING DEVELO 03:24:58:00 00:01:57:005
136 10013551486 CARMAN Ben TEAM U CUBE 17 A.PO.GE CYCLI 03:25:10:00 00:02:09:006
121 10015343360 LOCATIN Cédric Yannis EXCELSIOR 03:25:23:00 00:02:22:007
111 10012064659 ALMEIDA Pierre TEAM PRO IMMO NICOLAS ROUX 03:25:51:00 00:02:50:008
131 10015144714 LARPE Killian TEAM U CUBE 17 A.PO.GE CYCLI 03:26:12:00 00:03:11:009
31 10003120047 MILAN JIMENEZ  Diego INTEJA IMCA RIDEA DCT 03:26:20:00 00:03:19:001 0
255 10027669333 X PHAËTON Colins ASC KARAK 03:26:46:00 00:03:45:001 1
273 10091368526 X URCEL Adrien TEAM U.S.C. GOYAVE 03:27:14:00 00:04:13:001 2

196 10035320916 URREGO GOMEZ Alvaro SENTRY BOATYARD 03:27:43:00 00:04:42:001 3
263 10088382138 RUJANO GUILLEN José UNI SPORT LAMENTINOIS 03:27:48:00 00:04:47:001 4
33 10056423971 X GONZÁLEZ RIVERA  Abner INTEJA IMCA RIDEA DCT 03:28:03:00 00:05:02:001 5
35 10009023812 ÁLVAREZ AYALA  Miguel Luis INTEJA IMCA RIDEA DCT 03:28:03:00 00:05:02:001 6
82 10011791039 FUENTES Yorman GWADA BIKERS 118 03:28:30:00 00:05:29:001 7
222 10015361851 X CARNIER Axel CONVERGENCE S. C. ABYMIENN 03:28:41:00 00:05:40:001 8
236 10014461973 AURIGNAC Samy VELO D'OR DU CENTRE ET DE LA 03:29:31:00 00:06:30:001 9
112 10014768232 CHASSAGNE Thomas TEAM PRO IMMO NICOLAS ROUX 03:30:42:00 00:07:41:002 0
172 10036104491 X FEDEROV Yevgeniy VINO ASTANA MOTORS 03:31:21:00 00:08:20:002 1
274 10026187253 X URCEL Damien TEAM U.S.C. GOYAVE 03:32:05:00 00:09:04:002 2
214 10077803781 X LORENZO Randish Abdul PANAMA NATIONAL TEAM 03:32:12:00 00:09:11:002 3
23 10016211209 X NEMORIN Neddhym TEAM K.A. P.D.L 03:32:28:00 00:09:27:002 4
176 10006895367 NIKITIN Matvey VINO ASTANA MOTORS 03:32:30:00 00:09:29:002 5
123 10012701526 BLONDIN Grégory EXCELSIOR 03:32:35:00 00:09:34:002 6
44 10026176442 X MATHIAS Anaël ESPOIR DU SUD 03:32:52:00 00:09:51:002 7
211 10082273865 CASTEL Jorge PANAMA NATIONAL TEAM 03:33:41:00 00:10:40:002 8
212 10015238882 STRAH Alex PANAMA NATIONAL TEAM 03:33:41:00 00:10:40:002 9
105 10074497701 VARGAS CASTELLANO Freddy UNION VELOCIPEDIQUE DE MARI 03:34:55:00 00:11:54:003 0
116 10007382387 URRUTY Maxime TEAM PRO IMMO NICOLAS ROUX 03:35:24:00 00:12:23:003 1
4 10005572834 PIERZGA Adam Josef TEAM CARENE CYCLING DEVELO 03:36:33:00 00:13:32:003 2
52 10015288190 CASANOVAS ALEGRI David INTERPRO CYCLING ACADEMY 03:36:33:00 00:13:32:003 3
213 10080932336 ESPINOSA Bolivar PANAMA NATIONAL TEAM 03:37:08:00 00:14:07:003 4
104 10026612639 KWIATKOWSKI Grzegorz Jan UNION VELOCIPEDIQUE DE MARI 03:37:08:00 00:14:07:003 5
165 10014666279 VINETOT Romain A. CYCL. DU LEVANT 03:37:19:00 00:14:18:003 6
181 10026597380 X DELOUMEAUX Jérémy JEUNESSE CYCLISTE DES ABYM 03:37:20:00 00:14:19:003 7
242 10028042478 X PERAMIN NOSLEN Allan RAYON D'ARGENT 03:37:50:00 00:14:49:003 8
245 10025527855 X LACHAGES Alexandre RAYON D'ARGENT 03:37:50:00 00:14:49:003 9
261 10011208736 BOYEAU Fendley UNI SPORT LAMENTINOIS 03:38:25:00 00:15:24:004 0
133 10026778852 LAMY Antoine TEAM U CUBE 17 A.PO.GE CYCLI 03:38:25:00 00:15:24:004 1
134 10025066602 BAZIN Clément TEAM U CUBE 17 A.PO.GE CYCLI 03:38:25:00 00:15:24:004 2
264 10027697524 SALINAS DUQUE Jhonathan UNI SPORT LAMENTINOIS 03:38:37:00 00:15:36:004 3
43 10026332652 X GENE Meving ESPOIR DU SUD 03:38:39:00 00:15:38:004 4
296 10016210805 CIDOLIT Yannis SELECTION DE LA MARTINIQUE 03:39:02:00 00:16:01:004 5
254 10027596682 X LARGITTE Jeïel ASC KARAK 03:39:31:00 00:16:30:004 6
73 10009404132 BRAUN Julian TEAM DAUNER D&DQ AKKON 03:40:20:00 00:17:19:004 7
72 10014865131 X CLAUSS Marc TEAM DAUNER D&DQ AKKON 03:40:20:00 00:17:19:004 8
106 10026247978 BRAY GREGORIO Joaquim UNION VELOCIPEDIQUE DE MARI 03:40:38:00 00:17:37:004 9
173 10036105101 X BRUSSENSKIY Gleb VINO ASTANA MOTORS 03:41:03:00 00:18:02:005 0
235 10008976221 TORRES VILLAREAL Carlos Alberto VELO D'OR DU CENTRE ET DE LA 03:41:42:00 00:18:41:005 1
204 10007366122 CURIER Olivier UNION VELOCIPEDIQUE DU NORD 03:42:08:00 00:19:07:005 2
3 10005566770 SABLON Luis TEAM CARENE CYCLING DEVELO 03:44:18:00 00:21:17:005 3
144 10027662562 LAROCHELLE Stéphane U.S.R. VELO / S.T .P.A. 03:44:18:00 00:21:17:005 4
206 10014666178 RELMY Widjy UNION VELOCIPEDIQUE DU NORD 03:45:41:00 00:22:40:005 5
95 10012244616 BEYER Sebastian TEAM EMBRACE THE WORLD 03:46:33:00 00:23:32:005 6
216 10010110818 HERNANDEZ Nolberto PANAMA NATIONAL TEAM 03:47:15:00 00:24:14:005 7
182 10025073773 THEOPHILE Laury JEUNESSE CYCLISTE DES ABYM 03:47:34:00 00:24:33:005 8
34 10009035027 REYES ACEVEDO Elvys INTEJA IMCA RIDEA DCT 03:48:11:00 00:25:10:005 9
64 10027319123 X DURO Nicolas VELO CLUB SAINTANNAIS 03:48:14:00 00:25:13:006 0
183 10016210906 X DABRION Rogan JEUNESSE CYCLISTE DES ABYM 03:49:31:00 00:26:30:006 1
191 10014055583 MAY Jefferey SENTRY BOATYARD 03:50:20:00 00:27:19:006 2
265 10005468760 BILLE Gaetan UNI SPORT LAMENTINOIS 03:50:36:00 00:27:35:006 3
171 10036106010 X PRONSKIY Daniil VINO ASTANA MOTORS 03:50:36:00 00:27:35:006 4
283 10013115794 DANTIN Ludovic SELECTION DE LA GUYANE 03:51:14:00 00:28:13:006 5
132 10024385073 LAMY Julien TEAM U CUBE 17 A.PO.GE CYCLI 03:51:53:00 00:28:52:006 6
221 10016211108 X GERAN Ronald CONVERGENCE S. C. ABYMIENN 03:51:57:00 00:28:56:006 7
5 10004665882 GENE Martial TEAM CARENE CYCLING DEVELO 03:51:58:00 00:28:57:006 8
36 10008884776 GUZMAN ROSARIO William De Jésu INTEJA IMCA RIDEA DCT 03:52:14:00 00:29:13:006 9
251 10073814152 MINY Régis ASC KARAK 03:52:17:00 00:29:16:007 0
174 10009638952 SHTEIN Grigoriy VINO ASTANA MOTORS 03:53:13:00 00:30:12:007 1
76 10010862768 X OTTERBEIN René TEAM DAUNER D&DQ AKKON 03:53:19:00 00:30:18:007 2
56 10021228533 HUDRY Floriant INTERPRO CYCLING ACADEMY 03:54:13:00 00:31:12:007 3
126 10027562027 X PRADEL Youri EXCELSIOR 03:55:21:00 00:32:20:007 4
115 10011940781 THOMASSON Nicolas TEAM PRO IMMO NICOLAS ROUX 03:55:21:00 00:32:20:007 5
201 10012700314 LEGRAND Carl UNION VELOCIPEDIQUE DU NORD 03:55:21:00 00:32:20:007 6
113 10005890510 FOURNET FAYARD Sébastien TEAM PRO IMMO NICOLAS ROUX 03:55:21:00 00:32:20:007 7
93 10014115504 PESCHGES Marcel TEAM EMBRACE THE WORLD 03:55:29:00 00:32:28:007 8
75 10048454211 X STEIGNER Kilian TEAM DAUNER D&DQ AKKON 03:55:47:00 00:32:46:007 9
85 10089447926 CHAUPARD Olivier GWADA BIKERS 118 03:55:55:00 00:32:54:008 0
225 10073678049 ROUSSEAU Giovanie CONVERGENCE S. C. ABYMIENN 03:55:55:00 00:32:54:008 1
141 10012045865 ALIDOR Adrien U.S.R. VELO / S.T .P.A. 03:55:55:00 00:32:54:008 2
224 10014665572 PRUNEAU Jordy CONVERGENCE S. C. ABYMIENN 03:55:55:00 00:32:54:008 3
125 10025492691 X DAMAS Anthony EXCELSIOR 03:55:55:00 00:32:54:008 4
202 10007531729 BAROLIN Kérane UNION VELOCIPEDIQUE DU NORD 03:55:55:00 00:32:54:008 5
86 10008021274 BALGUY William GWADA BIKERS 118 03:55:58:00 00:32:57:008 6
12 10008725334 FRÖSE Marcel ROCKPALAST MATRIX RACING TE 03:56:07:00 00:33:06:008 7
26 10014665471 LUTIN Larry TEAM K.A. P.D.L 03:56:10:00 00:33:09:008 8
164 10014664562 SUARES Gilles A. CYCL. DU LEVANT 03:56:14:00 00:33:13:008 9
32 10009869732 NUNEZ HERNANDEZ Adrian Santiag INTEJA IMCA RIDEA DCT 03:56:26:00 00:33:25:009 0
71 10007357432 DONDERS Jelle TEAM DAUNER D&DQ AKKON 03:56:38:00 00:33:37:009 1
11 10011805284 NIESING T imo ROCKPALAST MATRIX RACING TE 03:56:46:00 00:33:45:009 2
84 10015344572 KARIOUA Kévin GWADA BIKERS 118 03:56:54:00 00:33:53:009 3
83 10013556641 DURO Kévin GWADA BIKERS 118 03:56:56:00 00:33:55:009 4
135 10013673950 FAYETTE Pierre André TEAM U CUBE 17 A.PO.GE CYCLI 03:57:29:00 00:34:28:009 5
232 10015342855 BOUSQUET Pascal VELO D'OR DU CENTRE ET DE LA 03:57:55:00 00:34:54:009 6
94 10046184916 DUFFNER Stephan TEAM EMBRACE THE WORLD 04:00:06:00 00:37:05:009 7
142 10025421458 JEANNE Vladimir U.S.R. VELO / S.T .P.A. 04:01:08:00 00:38:07:009 8
92 10007236685 KELLER Hermann TEAM EMBRACE THE WORLD 04:02:16:00 00:39:15:009 9
63 10010164065 NACTO Jordan VELO CLUB SAINTANNAIS 04:02:39:00 00:39:38:001 00
45 10013556742 TURLEPIN Romaric ESPOIR DU SUD 04:02:39:00 00:39:38:001 01
184 10016211310 LORQUIN Kénan JEUNESSE CYCLISTE DES ABYM 04:02:39:00 00:39:38:001 02
243 10027672161 PERRIET Nicolas RAYON D'ARGENT 04:02:41:00 00:39:40:001 03
145 10027717732 X CLAVIER Kendrick U.S.R. VELO / S.T .P.A. 04:02:41:00 00:39:40:001 04
61 10007529305 BONDOT William VELO CLUB SAINTANNAIS 04:02:41:00 00:39:40:001 05
143 10014075892 TARANE Teddy U.S.R. VELO / S.T .P.A. 04:02:41:00 00:39:40:001 06
41 10012700112 BENJAMIN Ronald Arnold ESPOIR DU SUD 04:02:41:00 00:39:40:001 07
252 10026661745 X ANDRE LUBIN Yanis ASC KARAK 04:02:41:00 00:39:40:001 08
226 10004591316 HAMLET Freddy CONVERGENCE S. C. ABYMIENN 04:02:41:00 00:39:40:001 09
195 10005905462 CLARKE Philip SENTRY BOATYARD 04:02:41:00 00:39:40:001 10
253 10014075791 JUDITH Marvin ASC KARAK 04:02:41:00 00:39:40:001 11
146 10006050558 ATTAUD Frédéric U.S.R. VELO / S.T .P.A. 04:02:41:00 00:39:40:001 12
46 10015343461 ARPHEXAD Luiji ESPOIR DU SUD 04:03:27:00 00:40:26:001 13
244 10008149192 MARIMOUTOU Jean-Marie RAYON D'ARGENT 04:09:16:00 00:46:15:001 14
223 10015342956 AMADORI Julien CONVERGENCE S. C. ABYMIENN 04:09:49:00 00:46:48:001 15
282 10070442592 SAINT LOUIS Lucas SELECTION DE LA GUYANE 04:13:04:00 00:50:03:001 16
102 10014664865 RUFFE Grégory UNION VELOCIPEDIQUE DE MARI 04:13:48:00 00:50:47:001 17
96 10064568335 WINGEN Simon TEAM EMBRACE THE WORLD 04:13:48:00 00:50:47:001 18

Abandons, Non Partants et Eliminés
161 10027296790 AJINCA Lucas A. CYCL. DU LEVANT DNS X

CLASSEMENT GENERAL INDIVIDUEL AU TEMPS A l'issue de l'étape n° 6 (08/08/19) Sponsor : REGION GUADELOUPE                        
Résultats officiels Moy/Km : 40,905 km/h
TOUR DE LA GUADELOUPE 2019 69è édition - U.C.I Classe ME 2.2 912,500 km parcourus

1 51 GUILLONNET Adrien INTERPRO CYCLING ACADEMY 10012343838 22:18:29:00 __:__:__
2 175 X PRONSKIY  Vadim VINO ASTANA MOTORS 10015084591 22:20:42:00 00:02:13
3 91 DOMBROWSKI Frederik TEAM EMBRACE THE WORLD 10009352804 22:20:51:00 00:02:22
4 111 ALMEIDA Pierre TEAM PRO IMMO NICOLAS ROUX 10012064659 22:22:53:00 00:04:24
5 31 MILAN JIMENEZ  Diego INTEJA IMCA RIDEA DCT 10003120047 22:23:28:00 00:04:59
6 35 ÁLVAREZ AYALA  Miguel Luis INTEJA IMCA RIDEA DCT 10009023812 22:24:07:00 00:05:38
7 81 NAVA CARVAJAL John Alberto GWADA BIKERS 118 10002296052 22:24:24:00 00:05:55
8 263 RUJANO GUILLEN José UNI SPORT LAMENTINOIS 10088382138 22:25:22:00 00:06:53
9 121 LOCATIN Cédric Yannis EXCELSIOR 10015343360 22:26:00:00 00:07:31
10 1 SANCHEZ ANZOLA Edwin TEAM CARENE CYCLING DEVEL 10006031461 22:26:07:00 00:07:38
11 136 CARMAN Ben TEAM U CUBE 17 A.PO.GE CYCLI 10013551486 22:26:27:00 00:07:58
12 236 AURIGNAC Samy VELO D'OR DU CENTRE ET DE LA 10014461973 22:29:22:00 00:10:53
13 176 NIKITIN Matvey VINO ASTANA MOTORS 10006895367 22:31:34:00 00:13:05
14 172 X FEDEROV Yevgeniy VINO ASTANA MOTORS 10036104491 22:32:01:00 00:13:32
15 116 URRUTY Maxime TEAM PRO IMMO NICOLAS ROUX 10007382387 22:33:01:00 00:14:32
16 131 LARPE Killian TEAM U CUBE 17 A.PO.GE CYCLI 10015144714 22:34:07:00 00:15:38
17 105 VARGAS CASTELLANO Freddy UNION VELOCIPEDIQUE DE MAR 10074497701 22:35:01:00 00:16:32
18 123 BLONDIN Grégory EXCELSIOR 10012701526 22:35:22:00 00:16:53
19 82 FUENTES Yorman GWADA BIKERS 118 10011791039 22:35:26:00 00:16:57
20 196 URREGO GOMEZ Alvaro SENTRY BOATYARD 10035320916 22:36:55:00 00:18:26
21 211 CASTEL Jorge PANAMA NATIONAL TEAM 10082273865 22:38:09:00 00:19:40
22 4 PIERZGA Adam Josef TEAM CARENE CYCLING DEVEL 10005572834 22:38:38:00 00:20:09
23 273 X URCEL Adrien TEAM U.S.C. GOYAVE 10091368526 22:39:43:00 00:21:14
24 33 X GONZÁLEZ RIVERA  Abner INTEJA IMCA RIDEA DCT 10056423971 22:39:48:00 00:21:19
25 212 STRAH Alex PANAMA NATIONAL TEAM 10015238882 22:40:04:00 00:21:35
26 104 KWIATKOWSKI Grzegorz Jan UNION VELOCIPEDIQUE DE MAR 10026612639 22:41:04:00 00:22:35
27 264 SALINAS DUQUE Jhonathan UNI SPORT LAMENTINOIS 10027697524 22:42:01:00 00:23:32
28 133 LAMY Antoine TEAM U CUBE 17 A.PO.GE CYCLI 10026778852 22:42:40:00 00:24:11
29 222 X CARNIER Axel CONVERGENCE S. C. ABYMIENN 10015361851 22:42:56:00 00:24:27
30 44 X MATHIAS Anaël ESPOIR DU SUD 10026176442 22:43:33:00 00:25:04
31 112 CHASSAGNE Thomas TEAM PRO IMMO NICOLAS ROUX 10014768232 22:44:21:00 00:25:52
32 73 BRAUN Julian TEAM DAUNER D&DQ AKKON 10009404132 22:44:42:00 00:26:13
33 204 CURIER Olivier UNION VELOCIPEDIQUE DU NOR 10007366122 22:44:49:00 00:26:20
34 43 X GENE Meving ESPOIR DU SUD 10026332652 22:45:01:00 00:26:32
35 181 X DELOUMEAUX Jérémy JEUNESSE CYCLISTE DES ABY 10026597380 22:46:26:00 00:27:57
36 52 CASANOVAS ALEGRI David INTERPRO CYCLING ACADEMY 10015288190 22:46:39:00 00:28:10
37 3 SABLON Luis TEAM CARENE CYCLING DEVEL 10005566770 22:51:27:00 00:32:58
38 95 BEYER Sebastian TEAM EMBRACE THE WORLD 10012244616 22:52:52:00 00:34:23
39 235 TORRES VILLAREAL Carlos Alberto VELO D'OR DU CENTRE ET DE LA 10008976221 22:53:20:00 00:34:51
40 106 BRAY GREGORIO Joaquim UNION VELOCIPEDIQUE DE MAR 10026247978 22:54:51:00 00:36:22
41 214 X LORENZO Randish Abdul PANAMA NATIONAL TEAM 10077803781 22:56:35:00 00:38:06
42 265 BILLE Gaetan UNI SPORT LAMENTINOIS 10005468760 22:59:55:00 00:41:26
43 255 X PHAËTON Colins ASC KARAK 10027669333 23:03:19:00 00:44:50
44 26 LUTIN Larry TEAM K.A. P.D.L 10014665471 23:04:05:00 00:45:36
45 213 ESPINOSA Bolivar PANAMA NATIONAL TEAM 10080932336 23:05:24:00 00:46:55
46 144 LAROCHELLE Stéphane U.S.R. VELO / S.T .P.A.1 0027662562 23:06:59:00 00:48:30
47 34 REYES ACEVEDO Elvys INTEJA IMCA RIDEA DCT 10009035027 23:07:10:00 00:48:41
48 23 X NEMORIN Neddhym TEAM K.A. P.D.L 10016211209 23:07:16:00 00:48:47
49 221 X GERAN Ronald CONVERGENCE S. C. ABYMIENN 10016211108 23:09:53:00 00:51:24
50 72 X CLAUSS Marc TEAM DAUNER D&DQ AKKON 10014865131 23:10:56:00 00:52:27
51 75 X STEIGNER Kilian TEAM DAUNER D&DQ AKKON 10048454211 23:11:04:00 00:52:35
52 115 THOMASSON Nicolas TEAM PRO IMMO NICOLAS ROUX 10011940781 23:11:17:00 00:52:48
53 296 CIDOLIT Yannis SELECTION DE LA MARTINIQUE 10016210805 23:11:29:00 00:53:00
54 165 VINETOT Romain A. CYCL. DU LEVANT 10014666279 23:11:36:00 00:53:07
55 191 MAY Jefferey SENTRY BOATYARD 10014055583 23:11:51:00 00:53:22
56 93 PESCHGES Marcel TEAM EMBRACE THE WORLD 10014115504 23:13:39:00 00:55:10
57 202 BAROLIN Kérane UNION VELOCIPEDIQUE DU NOR 10007531729 23:15:13:00 00:56:44
58 216 HERNANDEZ Nolberto PANAMA NATIONAL TEAM 10010110818 23:16:22:00 00:57:53
59 224 PRUNEAU Jordy CONVERGENCE S. C. ABYMIENN 10014665572 23:16:28:00 00:57:59
60 242 X PERAMIN NOSLEN Allan RAYON D'ARGENT 10028042478 23:17:43:00 00:59:14
61 174 SHTEIN Grigoriy VINO ASTANA MOTORS 10009638952 23:22:11:00 01:03:42
62 261 BOYEAU Fendley UNI SPORT LAMENTINOIS 10011208736 23:22:44:00 01:04:15
63 134 BAZIN Clément TEAM U CUBE 17 A.PO.GE CYCLI 10025066602 23:23:03:00 01:04:34
64 173 X BRUSSENSKIY Gleb VINO ASTANA MOTORS 10036105101 23:23:04:00 01:04:35
65 141 ALIDOR Adrien U.S.R. VELO / S.T .P.A.1 0012045865 23:24:55:00 01:06:26
66 36 GUZMAN ROSARIO William De Jésus INTEJA IMCA RIDEA DCT 10008884776 23:24:59:00 01:06:30
67 245 X LACHAGES Alexandre RAYON D'ARGENT 10025527855 23:26:21:00 01:07:52
68 206 RELMY Widjy UNION VELOCIPEDIQUE DU NOR 10014666178 23:28:48:00 01:10:19
69 171 X PRONSKIY Daniil VINO ASTANA MOTORS 10036106010 23:29:44:00 01:11:15
70 132 LAMY Julien TEAM U CUBE 17 A.PO.GE CYCLI 10024385073 23:32:18:00 01:13:49
71 201 LEGRAND Carl UNION VELOCIPEDIQUE DU NOR 10012700314 23:36:03:00 01:17:34
72 182 THEOPHILE Laury JEUNESSE CYCLISTE DES ABY 10025073773 23:41:17:00 01:22:48
73 11 NIESING T imo ROCKPALAST MATRIX RACING T1 0011805284 23:41:31:00 01:23:02
74 64 X DURO Nicolas VELO CLUB SAINTANNAIS 10027319123 23:42:12:00 01:23:43
75 232 BOUSQUET Pascal VELO D'OR DU CENTRE ET DE LA 10015342855 23:42:22:00 01:23:53
76 63 NACTO Jordan VELO CLUB SAINTANNAIS 10010164065 23:42:36:00 01:24:07
77 113 FOURNET FAYARD Sébastien TEAM PRO IMMO NICOLAS ROUX 10005890510 23:43:24:00 01:24:55
78 274 X URCEL Damien TEAM U.S.C. GOYAVE 10026187253 23:44:03:00 01:25:34
79 142 JEANNE Vladimir U.S.R. VELO / S.T .P.A.1 0025421458 23:46:54:00 01:28:25
80 32 NUNEZ HERNANDEZ Adrian Santiago INTEJA IMCA RIDEA DCT 10009869732 23:49:33:00 01:31:04
81 86 BALGUY William GWADA BIKERS 118 10008021274 23:50:06:00 01:31:37
82 254 X LARGITTE Jeïel ASC KARAK 10027596682 23:51:14:00 01:32:45
83 94 DUFFNER Stephan TEAM EMBRACE THE WORLD 10046184916 23:52:00:00 01:33:31
84 225 ROUSSEAU Giovanie CONVERGENCE S. C. ABYMIENN 10073678049 23:52:03:00 01:33:34
85 145 X CLAVIER Kendrick U.S.R. VELO / S.T .P.A.1 0027717732 23:52:28:00 01:33:59
86 12 FRÖSE Marcel ROCKPALAST MATRIX RACING T 10008725334 23:53:06:00 01:34:37
87 76 X OTTERBEIN René TEAM DAUNER D&DQ AKKON 10010862768 23:54:59:00 01:36:30
88 56 HUDRY Floriant INTERPRO CYCLING ACADEMY 10021228533 24:02:42:00 01:44:13
89 125 X DAMAS Anthony EXCELSIOR 10025492691 24:05:11:00 01:46:42
90 84 KARIOUA Kévin GWADA BIKERS 118 10015344572 24:07:40:00 01:49:11
91 183 X DABRION Rogan JEUNESSE CYCLISTE DES ABY 10016210906 24:07:57:00 01:49:28
92 226 HAMLET Freddy CONVERGENCE S. C. ABYMIENN 10004591316 24:08:55:00 01:50:26
93 126 X PRADEL Youri EXCELSIOR 10027562027 24:10:30:00 01:52:01
94 71 DONDERS Jelle TEAM DAUNER D&DQ AKKON 10007357432 24:12:08:00 01:53:39
95 283 DANTIN Ludovic SELECTION DE LA GUYANE 10013115794 24:14:31:00 01:56:02
96 143 TARANE Teddy U.S.R. VELO / S.T .P.A.1 0014075892 24:15:49:00 01:57:20
97 92 KELLER Hermann TEAM EMBRACE THE WORLD 10007236685 24:17:41:00 01:59:12
98 135 FAYETTE Pierre André TEAM U CUBE 17 A.PO.GE CYCLI 10013673950 24:18:15:00 01:59:46
99 61 BONDOT William VELO CLUB SAINTANNAIS 10007529305 24:20:43:00 02:02:14
100 85 CHAUPARD Olivier GWADA BIKERS 118 10089447926 24:20:54:00 02:02:25
101 164 SUARES Gilles A. CYCL. DU LEVANT 10014664562 24:22:51:00 02:04:22
102 45 TURLEPIN Romaric ESPOIR DU SUD 10013556742 24:24:53:00 02:06:24
103 5 GENE Martial TEAM CARENE CYCLING DEVEL 10004665882 24:28:56:00 02:10:27
104 251 MINY Régis ASC KARAK 10073814152 24:30:08:00 02:11:39
105 184 LORQUIN Kénan JEUNESSE CYCLISTE DES ABY 10016211310 24:32:02:00 02:13:33
106 243 PERRIET Nicolas RAYON D'ARGENT 10027672161 24:36:22:00 02:17:53
107 83 DURO Kévin GWADA BIKERS 118 10013556641 24:39:29:00 02:21:00
108 252 X ANDRE LUBIN Yanis ASC KARAK 10026661745 24:40:40:00 02:22:11
109 46 ARPHEXAD Luiji ESPOIR DU SUD 10015343461 24:46:59:00 02:28:30
110 223 AMADORI Julien CONVERGENCE S. C. ABYMIENN 10015342956 24:47:56:00 02:29:27
111 41 BENJAMIN Ronald Arnold ESPOIR DU SUD 10012700112 24:52:43:00 02:34:14
112 146 ATTAUD Frédéric U.S.R. VELO / S.T .P.A.1 0006050558 24:55:36:00 02:37:07
113 253 JUDITH Marvin ASC KARAK 10014075791 24:58:47:00 02:40:18
114 282 SAINT LOUIS Lucas SELECTION DE LA GUYANE 10070442592 25:08:19:00 02:49:50
115 96 WINGEN Simon TEAM EMBRACE THE WORLD 10064568335 25:17:05:00 02:58:36
116 195 CLARKE Philip SENTRY BOATYARD 10005905462 25:17:46:00 02:59:17
117 244 MARIMOUTOU Jean-Marie RAYON D'ARGENT 10008149192 25:30:40:00 03:12:11
118 102 RUFFE Grégory UNION VELOCIPEDIQUE DE MAR 10014664865 26:17:56:00 03:59:27